createdAt,value
2019-04-28T00:00:21.574Z,99.90
2019-04-28T00:02:50.797Z,99.90
2019-04-28T00:05:21.027Z,99.90
2019-04-28T00:07:50.551Z,99.90
2019-04-28T00:10:20.905Z,99.90
2019-04-28T00:12:51.100Z,99.90
2019-04-28T00:15:20.829Z,99.90
2019-04-28T00:17:49.421Z,99.90
2019-04-28T00:20:21.331Z,99.90
2019-04-28T00:22:54.317Z,99.90
2019-04-28T00:25:24.411Z,99.90
2019-04-28T00:27:52.840Z,99.90
2019-04-28T00:30:21.798Z,99.90
2019-04-28T00:32:51.871Z,99.90
2019-04-28T00:35:21.738Z,99.90
2019-04-28T00:37:51.717Z,99.90
2019-04-28T00:40:21.722Z,99.90
2019-04-28T00:42:51.211Z,99.90
2019-04-28T00:45:21.407Z,99.90
2019-04-28T00:47:51.051Z,99.90
2019-04-28T00:50:21.601Z,99.90
2019-04-28T00:52:51.672Z,99.90
2019-04-28T00:55:21.015Z,99.90
2019-04-28T00:57:50.938Z,99.90
2019-04-28T01:00:23.103Z,99.90
2019-04-28T01:02:51.759Z,99.90
2019-04-28T01:05:21.350Z,99.90
2019-04-28T01:07:51.098Z,99.90
2019-04-28T01:10:21.042Z,99.90
2019-04-28T01:12:50.971Z,99.90
2019-04-28T01:15:21.213Z,99.90
2019-04-28T01:18:00.749Z,99.90
2019-04-28T01:20:29.672Z,99.90
2019-04-28T01:22:58.143Z,99.90
2019-04-28T01:25:26.595Z,99.90
2019-04-28T01:27:55.702Z,99.90
2019-04-28T01:30:42.967Z,99.90
2019-04-28T01:33:21.832Z,99.90
2019-04-28T01:35:50.357Z,99.90
2019-04-28T01:38:20.481Z,99.90
2019-04-28T01:40:49.933Z,99.90
2019-04-28T01:43:19.609Z,99.90
2019-04-28T01:45:50.104Z,99.90
2019-04-28T01:48:19.859Z,99.90
2019-04-28T01:50:49.966Z,99.90
2019-04-28T01:53:19.925Z,99.90
2019-04-28T01:55:49.510Z,99.90
2019-04-28T01:58:20.476Z,99.90
2019-04-28T02:00:48.317Z,99.90
2019-04-28T02:03:16.814Z,99.90
2019-04-28T02:05:45.269Z,99.90
2019-04-28T02:08:13.700Z,99.90
2019-04-28T02:10:42.135Z,99.90
2019-04-28T02:13:11.417Z,99.90
2019-04-28T02:15:40.112Z,99.90
2019-04-28T02:18:09.942Z,99.90
2019-04-28T02:20:40.058Z,99.90
2019-04-28T02:23:12.839Z,99.90
2019-04-28T02:25:41.277Z,99.90
2019-04-28T02:28:11.737Z,99.90
2019-04-28T02:30:48.627Z,99.90
2019-04-28T02:33:11.131Z,99.90
2019-04-28T02:35:41.871Z,99.90
2019-04-28T02:38:11.491Z,99.90
2019-04-28T02:40:40.720Z,99.90
2019-04-28T02:43:11.463Z,99.90
2019-04-28T02:45:41.214Z,99.90
2019-04-28T02:48:11.559Z,99.90
2019-04-28T02:50:47.347Z,99.90
2019-04-28T02:53:23.193Z,99.90
2019-04-28T02:55:51.639Z,99.90
2019-04-28T02:58:22.373Z,99.90
2019-04-28T03:01:02.754Z,99.90
2019-04-28T03:03:21.233Z,99.90
2019-04-28T03:05:51.250Z,99.90
2019-04-28T03:08:21.404Z,99.90
2019-04-28T03:10:50.879Z,99.90
2019-04-28T03:13:20.896Z,99.90
2019-04-28T03:15:51.563Z,99.90
2019-04-28T03:18:21.458Z,99.90
2019-04-28T03:20:51.474Z,99.90
2019-04-28T03:23:20.848Z,99.90
2019-04-28T03:26:06.789Z,99.90
2019-04-28T03:28:41.450Z,99.90
2019-04-28T03:31:40.538Z,99.90
2019-04-28T03:33:48.738Z,99.90
2019-04-28T03:36:15.447Z,99.90
2019-04-28T03:38:42.322Z,99.90
2019-04-28T03:41:11.319Z,99.90
2019-04-28T03:43:40.613Z,99.90
2019-04-28T03:46:22.690Z,99.90
2019-04-28T03:48:51.274Z,99.90
2019-04-28T03:51:21.188Z,99.90
2019-04-28T03:53:50.700Z,99.90
2019-04-28T03:56:20.953Z,99.90
2019-04-28T03:58:50.438Z,99.90
2019-04-28T04:01:20.715Z,99.90
2019-04-28T04:03:51.556Z,99.90
2019-04-28T04:06:22.367Z,99.90
2019-04-28T04:08:50.624Z,99.90
2019-04-28T04:11:23.619Z,99.90
2019-04-28T04:14:01.707Z,99.90
2019-04-28T04:16:34.167Z,99.90
2019-04-28T04:19:06.946Z,99.90
2019-04-28T04:21:35.393Z,99.90
2019-04-28T04:24:04.068Z,99.90
2019-04-28T04:26:33.630Z,99.90
2019-04-28T04:29:02.228Z,99.90
2019-04-28T04:31:31.777Z,99.90
2019-04-28T04:34:03.022Z,99.90
2019-04-28T04:36:31.122Z,99.90
2019-04-28T04:39:01.820Z,99.90
2019-04-28T04:41:30.566Z,99.90
2019-04-28T04:44:01.176Z,99.90
2019-04-28T04:46:31.357Z,99.90
2019-04-28T04:49:00.684Z,99.90
2019-04-28T04:51:30.650Z,99.90
2019-04-28T04:54:01.218Z,99.90
2019-04-28T04:56:30.234Z,99.90
2019-04-28T04:59:02.333Z,99.90
2019-04-28T05:01:30.755Z,99.90
2019-04-28T05:04:00.841Z,99.90
2019-04-28T05:06:41.207Z,99.90
2019-04-28T05:09:10.407Z,99.90
2019-04-28T05:11:40.009Z,99.90
2019-04-28T05:14:11.593Z,99.90
2019-04-28T05:16:39.836Z,99.90
2019-04-28T05:19:10.082Z,99.90
2019-04-28T05:21:40.151Z,99.90
2019-04-28T05:24:26.711Z,99.90
2019-04-28T05:26:55.219Z,99.90
2019-04-28T05:29:26.995Z,99.90
2019-04-28T05:31:54.861Z,99.90
2019-04-28T05:34:24.515Z,99.90
2019-04-28T05:36:53.111Z,99.90
2019-04-28T05:39:21.687Z,99.90
2019-04-28T05:41:50.581Z,99.90
2019-04-28T05:44:20.201Z,99.90
2019-04-28T05:46:50.611Z,99.90
2019-04-28T05:49:21.108Z,99.90
2019-04-28T05:51:51.182Z,99.90
2019-04-28T05:54:33.016Z,99.90
2019-04-28T05:57:11.702Z,99.90
2019-04-28T05:59:47.338Z,99.90
2019-04-28T06:02:21.839Z,99.90
2019-04-28T06:04:50.046Z,99.90
2019-04-28T06:07:22.582Z,99.90
2019-04-28T06:09:52.670Z,99.90
2019-04-28T06:12:21.590Z,99.90
2019-04-28T06:14:50.305Z,99.90
2019-04-28T06:17:20.639Z,99.90
2019-04-28T06:19:50.406Z,99.90
2019-04-28T06:22:19.062Z,99.90
2019-04-28T06:24:47.584Z,99.90
2019-04-28T06:27:16.154Z,99.90
2019-04-28T06:29:44.594Z,99.90
2019-04-28T06:32:13.103Z,99.90
2019-04-28T06:34:41.569Z,99.90
2019-04-28T06:37:10.005Z,99.90
2019-04-28T06:39:38.524Z,99.90
2019-04-28T06:42:07.019Z,99.90
2019-04-28T06:44:35.483Z,99.90
2019-04-28T06:47:04.055Z,99.90
2019-04-28T06:49:32.503Z,99.90
2019-04-28T06:52:00.963Z,99.90
2019-04-28T06:54:29.418Z,99.90
2019-04-28T06:56:57.875Z,99.90
2019-04-28T06:59:26.388Z,99.90
2019-04-28T07:01:54.833Z,99.90
2019-04-28T07:04:23.285Z,99.90
2019-04-28T07:06:51.749Z,99.90
2019-04-28T07:09:20.300Z,99.90
2019-04-28T07:11:48.823Z,99.90
2019-04-28T07:14:17.326Z,99.90
2019-04-28T07:16:45.795Z,99.90
2019-04-28T07:19:14.511Z,99.90
2019-04-28T07:21:53.560Z,99.90
2019-04-28T07:24:22.057Z,99.90
2019-04-28T07:26:50.513Z,99.90
2019-04-28T07:29:19.027Z,99.90
2019-04-28T07:31:47.633Z,99.90
2019-04-28T07:34:16.272Z,99.90
2019-04-28T07:36:44.801Z,99.90
2019-04-28T07:39:13.240Z,99.90
2019-04-28T07:41:41.732Z,99.90
2019-04-28T07:44:10.202Z,99.90
2019-04-28T07:46:38.681Z,99.90
2019-04-28T07:49:07.110Z,99.90
2019-04-28T07:51:40.165Z,99.90
2019-04-28T07:54:10.242Z,99.90
2019-04-28T07:56:38.702Z,99.90
2019-04-28T07:59:10.130Z,99.90
2019-04-28T08:01:38.043Z,99.90
2019-04-28T08:04:06.484Z,99.90
2019-04-28T08:06:34.946Z,99.90
2019-04-28T08:09:05.142Z,99.90
2019-04-28T08:11:33.598Z,99.90
2019-04-28T08:14:02.045Z,99.90
2019-04-28T08:16:30.498Z,99.90
2019-04-28T08:18:58.941Z,99.90
2019-04-28T08:21:27.400Z,99.90
2019-04-28T08:23:55.830Z,99.90
2019-04-28T08:26:24.313Z,99.90
2019-04-28T08:28:52.836Z,99.90
2019-04-28T08:31:22.915Z,99.90
2019-04-28T08:34:02.307Z,99.90
2019-04-28T08:36:25.915Z,99.90
2019-04-28T08:38:54.377Z,99.90
2019-04-28T08:41:22.830Z,99.90
2019-04-28T08:43:51.359Z,99.90
2019-04-28T08:46:19.794Z,99.90
2019-04-28T08:48:48.270Z,99.90
2019-04-28T08:51:16.711Z,99.90
2019-04-28T08:53:45.157Z,99.90
2019-04-28T08:56:13.594Z,99.90
2019-04-28T08:58:42.078Z,99.90
2019-04-28T09:01:10.591Z,99.90
2019-04-28T09:03:39.061Z,99.90
2019-04-28T09:06:07.504Z,99.90
2019-04-28T09:08:35.973Z,99.90
2019-04-28T09:11:04.435Z,99.90
2019-04-28T09:13:32.908Z,99.90
2019-04-28T09:16:01.780Z,99.90
2019-04-28T09:18:30.256Z,99.90
2019-04-28T09:20:58.789Z,99.90
2019-04-28T09:23:27.233Z,99.90
2019-04-28T09:25:55.772Z,99.90
2019-04-28T09:28:24.296Z,99.90
2019-04-28T09:30:52.738Z,99.90
2019-04-28T09:33:21.210Z,99.90
2019-04-28T09:35:49.646Z,99.90
2019-04-28T09:38:18.140Z,99.90
2019-04-28T09:40:46.725Z,99.90
2019-04-28T09:43:16.820Z,99.90
2019-04-28T09:45:46.911Z,99.90
2019-04-28T09:48:15.446Z,99.90
2019-04-28T09:50:43.876Z,99.90
2019-04-28T09:53:12.328Z,99.90
2019-04-28T09:55:40.802Z,99.90
2019-04-28T09:58:09.326Z,99.90
2019-04-28T10:00:38.981Z,99.90
2019-04-28T10:03:07.428Z,99.90
2019-04-28T10:05:35.906Z,99.90
2019-04-28T10:08:04.823Z,99.90
2019-04-28T10:10:33.279Z,99.90
2019-04-28T10:13:01.729Z,99.90
2019-04-28T10:15:30.252Z,99.90
2019-04-28T10:17:58.712Z,99.90
2019-04-28T10:20:27.173Z,99.90
2019-04-28T10:22:55.620Z,99.90
2019-04-28T10:25:24.161Z,99.90
2019-04-28T10:27:52.595Z,99.90
2019-04-28T10:30:21.158Z,99.90
2019-04-28T10:32:49.611Z,99.90
2019-04-28T10:35:18.085Z,99.90
2019-04-28T10:37:46.661Z,99.90
2019-04-28T10:40:32.641Z,99.90
2019-04-28T10:43:01.075Z,99.90
2019-04-28T10:45:31.215Z,99.90
2019-04-28T10:47:59.691Z,99.90
2019-04-28T10:50:28.242Z,99.90
2019-04-28T10:52:56.779Z,99.90
2019-04-28T10:55:25.232Z,99.90
2019-04-28T10:57:53.658Z,99.90
2019-04-28T11:00:23.922Z,99.90
2019-04-28T11:02:52.365Z,99.90
2019-04-28T11:05:25.433Z,99.90
2019-04-28T11:07:55.056Z,99.90
2019-04-28T11:10:23.520Z,99.90
2019-04-28T11:12:51.973Z,99.90
2019-04-28T11:15:22.151Z,99.90
2019-04-28T11:17:50.611Z,99.90
2019-04-28T11:20:19.059Z,99.90
2019-04-28T11:22:47.550Z,99.90
2019-04-28T11:25:16.092Z,99.90
2019-04-28T11:27:44.649Z,99.90
2019-04-28T11:30:14.059Z,99.90
2019-04-28T11:32:44.387Z,99.90
2019-04-28T11:35:21.987Z,99.90
2019-04-28T11:37:47.460Z,99.90
2019-04-28T11:40:15.975Z,99.90
2019-04-28T11:42:44.450Z,99.90
2019-04-28T11:45:13.283Z,99.90
2019-04-28T11:47:41.783Z,99.90
2019-04-28T11:50:10.524Z,99.90
2019-04-28T11:52:38.992Z,99.90
2019-04-28T11:55:07.593Z,99.90
2019-04-28T11:57:36.113Z,99.90
2019-04-28T12:00:07.134Z,99.90
2019-04-28T12:02:35.589Z,99.90
2019-04-28T12:05:05.171Z,99.90
2019-04-28T12:07:33.724Z,99.90
2019-04-28T12:10:05.370Z,99.90
2019-04-28T12:12:44.308Z,99.90
2019-04-28T12:15:17.294Z,99.90
2019-04-28T12:17:56.093Z,99.90
2019-04-28T12:20:26.217Z,99.90
2019-04-28T12:22:54.675Z,99.90
2019-04-28T12:25:23.160Z,99.90
2019-04-28T12:27:51.636Z,99.90
2019-04-28T12:30:20.283Z,99.90
2019-04-28T12:32:48.731Z,99.90
2019-04-28T12:35:18.528Z,97.80
2019-04-28T12:37:47.152Z,95.30
2019-04-28T12:40:15.853Z,97.40
2019-04-28T12:42:44.374Z,92.50
2019-04-28T12:45:13.069Z,91.20
2019-04-28T12:47:41.511Z,85.10
2019-04-28T12:50:12.058Z,87.70
2019-04-28T12:52:40.577Z,93.50
2019-04-28T12:55:10.143Z,84.60
2019-04-28T12:57:38.669Z,82.80
2019-04-28T13:00:09.409Z,86.10
2019-04-28T13:02:47.970Z,82.70
2019-04-28T13:05:18.070Z,86.90
2019-04-28T13:07:46.536Z,86.70
2019-04-28T13:10:15.133Z,83.20
2019-04-28T13:12:43.581Z,79.70
2019-04-28T13:15:12.112Z,77.00
2019-04-28T13:17:40.557Z,82.50
2019-04-28T13:20:09.869Z,96.50
2019-04-28T13:22:38.340Z,98.00
2019-04-28T13:25:07.244Z,99.90
2019-04-28T13:27:35.728Z,99.90
2019-04-28T13:30:05.935Z,99.90
2019-04-28T13:32:34.440Z,99.90
2019-04-28T13:35:03.053Z,99.90
2019-04-28T13:37:31.571Z,99.90
2019-04-28T13:40:04.146Z,99.90
2019-04-28T13:42:32.671Z,99.90
2019-04-28T13:45:02.875Z,99.90
2019-04-28T13:47:31.395Z,99.90
2019-04-28T13:50:04.311Z,99.90
2019-04-28T13:52:32.861Z,99.90
2019-04-28T13:55:08.669Z,99.90
2019-04-28T13:57:37.122Z,99.90
2019-04-28T14:00:10.298Z,99.90
2019-04-28T14:02:42.897Z,99.90
2019-04-28T14:05:15.977Z,99.90
2019-04-28T14:07:44.441Z,99.90
2019-04-28T14:10:12.977Z,99.90
2019-04-28T14:12:41.487Z,99.90
2019-04-28T14:15:10.290Z,99.90
2019-04-28T14:17:38.916Z,99.90
2019-04-28T14:20:08.679Z,99.90
2019-04-28T14:22:37.150Z,99.90
2019-04-28T14:25:06.944Z,99.90
2019-04-28T14:27:35.484Z,99.90
2019-04-28T14:30:08.510Z,99.90
2019-04-28T14:32:38.828Z,99.90
2019-04-28T14:35:07.554Z,99.90
2019-04-28T14:37:36.045Z,99.90
2019-04-28T14:40:06.213Z,99.90
2019-04-28T14:42:34.700Z,99.90
2019-04-28T14:45:03.527Z,99.90
2019-04-28T14:47:32.005Z,99.90
2019-04-28T14:50:02.768Z,99.90
2019-04-28T14:52:30.622Z,99.90
2019-04-28T14:54:59.110Z,99.90
2019-04-28T14:57:27.546Z,99.90
2019-04-28T14:59:58.145Z,99.90
2019-04-28T15:02:43.848Z,99.90
2019-04-28T15:05:23.455Z,99.90
2019-04-28T15:08:09.924Z,99.90
2019-04-28T15:10:57.874Z,99.90
2019-04-28T15:13:26.822Z,99.90
2019-04-28T15:15:55.328Z,99.90
2019-04-28T15:18:23.813Z,99.90
2019-04-28T15:20:52.351Z,99.90
2019-04-28T15:23:20.892Z,99.90
2019-04-28T15:25:49.392Z,99.90
2019-04-28T15:28:17.950Z,99.90
2019-04-28T15:30:46.423Z,99.90
2019-04-28T15:33:14.870Z,99.90
2019-04-28T15:35:43.404Z,99.90
2019-04-28T15:38:11.862Z,99.90
2019-04-28T15:40:40.405Z,99.90
2019-04-28T15:43:08.840Z,99.90
2019-04-28T15:45:37.299Z,99.90
2019-04-28T15:48:05.902Z,99.90
2019-04-28T15:50:34.368Z,99.90
2019-04-28T15:53:02.878Z,99.90
2019-04-28T15:55:32.989Z,99.90
2019-04-28T15:58:03.086Z,99.90
2019-04-28T16:00:31.618Z,99.90
2019-04-28T16:03:00.064Z,99.90
2019-04-28T16:05:28.522Z,99.90
2019-04-28T16:07:56.970Z,99.90
2019-04-28T16:10:25.415Z,99.90
2019-04-28T16:12:53.902Z,99.90
2019-04-28T16:15:22.414Z,99.90
2019-04-28T16:17:50.971Z,99.90
2019-04-28T16:20:19.470Z,99.90
2019-04-28T16:22:47.971Z,99.90
2019-04-28T16:25:16.413Z,99.90
2019-04-28T16:27:44.873Z,99.90
2019-04-28T16:30:13.532Z,99.90
2019-04-28T16:32:42.048Z,99.90
2019-04-28T16:35:10.559Z,99.90
2019-04-28T16:37:39.370Z,99.90
2019-04-28T16:40:09.607Z,99.90
2019-04-28T16:42:38.885Z,99.90
2019-04-28T16:45:08.207Z,99.90
2019-04-28T16:47:36.720Z,99.90
2019-04-28T16:50:06.975Z,99.90
2019-04-28T16:52:35.665Z,99.90
2019-04-28T16:55:16.578Z,99.90
2019-04-28T16:57:52.630Z,99.90
2019-04-28T17:00:28.363Z,99.90
2019-04-28T17:02:57.714Z,99.90
2019-04-28T17:05:26.303Z,99.90
2019-04-28T17:07:54.848Z,99.90
2019-04-28T17:10:23.322Z,99.90
2019-04-28T17:12:51.860Z,99.90
2019-04-28T17:15:20.345Z,99.90
2019-04-28T17:17:48.880Z,99.90
2019-04-28T17:20:17.565Z,99.90
2019-04-28T17:22:46.023Z,99.90
2019-04-28T17:25:14.630Z,99.90
2019-04-28T17:27:43.094Z,99.90
2019-04-28T17:30:12.078Z,99.90
2019-04-28T17:32:40.616Z,99.90
2019-04-28T17:35:09.228Z,99.90
2019-04-28T17:37:37.694Z,99.90
2019-04-28T17:40:06.968Z,99.90
2019-04-28T17:42:35.677Z,99.90
2019-04-28T17:45:08.311Z,99.90
2019-04-28T17:47:37.273Z,99.90
2019-04-28T17:50:06.159Z,99.90
2019-04-28T17:52:34.674Z,99.90
2019-04-28T17:55:03.998Z,99.90
2019-04-28T17:57:32.573Z,99.90
2019-04-28T18:00:05.417Z,99.90
2019-04-28T18:02:35.495Z,99.90
2019-04-28T18:05:05.838Z,99.90
2019-04-28T18:07:35.930Z,99.90
2019-04-28T18:10:06.899Z,99.90
2019-04-28T18:12:35.986Z,99.90
2019-04-28T18:15:08.862Z,99.90
2019-04-28T18:17:54.731Z,99.90
2019-04-28T18:20:23.279Z,99.90
2019-04-28T18:22:51.733Z,99.90
2019-04-28T18:25:20.267Z,99.90
2019-04-28T18:27:48.795Z,99.90
2019-04-28T18:30:19.029Z,99.90
2019-04-28T18:32:58.136Z,99.90
2019-04-28T18:35:30.764Z,99.90
2019-04-28T18:38:03.905Z,99.90
2019-04-28T18:40:50.016Z,99.90
2019-04-28T18:43:22.970Z,99.90
2019-04-28T18:45:51.541Z,99.90
2019-04-28T18:48:20.006Z,99.90
2019-04-28T18:50:48.509Z,99.90
2019-04-28T18:53:17.125Z,99.90
2019-04-28T18:55:45.668Z,99.90
2019-04-28T18:58:14.239Z,99.90
2019-04-28T19:00:44.392Z,99.90
2019-04-28T19:03:12.870Z,99.90
2019-04-28T19:05:43.054Z,99.90
2019-04-28T19:08:13.298Z,99.90
2019-04-28T19:10:45.805Z,99.90
2019-04-28T19:13:33.542Z,99.90
2019-04-28T19:16:12.301Z,99.90
2019-04-28T19:18:42.370Z,99.90
2019-04-28T19:21:10.859Z,99.90
2019-04-28T19:23:39.316Z,99.90
2019-04-28T19:26:07.759Z,99.90
2019-04-28T19:28:36.224Z,99.90
2019-04-28T19:31:04.748Z,99.90
2019-04-28T19:33:33.208Z,99.90
2019-04-28T19:36:01.670Z,99.90
2019-04-28T19:38:32.338Z,99.90
2019-04-28T19:41:03.229Z,99.90
2019-04-28T19:43:31.679Z,99.90
2019-04-28T19:46:01.903Z,99.90
2019-04-28T19:48:30.456Z,99.90
2019-04-28T19:50:59.060Z,99.90
2019-04-28T19:53:27.661Z,99.90
2019-04-28T19:56:12.626Z,99.90
2019-04-28T19:58:45.755Z,99.90
2019-04-28T20:01:21.827Z,99.90
2019-04-28T20:03:50.415Z,99.90
2019-04-28T20:06:18.945Z,99.90
2019-04-28T20:08:47.499Z,99.90
2019-04-28T20:11:16.012Z,99.90
2019-04-28T20:13:44.467Z,99.90
2019-04-28T20:16:12.922Z,99.90
2019-04-28T20:18:41.505Z,99.90
2019-04-28T20:21:09.990Z,99.90
2019-04-28T20:23:38.458Z,99.90
2019-04-28T20:26:07.080Z,99.90
2019-04-28T20:28:35.599Z,99.90
2019-04-28T20:31:04.138Z,99.90
2019-04-28T20:33:32.591Z,99.90
2019-04-28T20:36:02.961Z,99.90
2019-04-28T20:38:32.923Z,99.90
2019-04-28T20:41:12.211Z,99.90
2019-04-28T20:43:40.665Z,99.90
2019-04-28T20:46:09.310Z,99.90
2019-04-28T20:48:37.791Z,99.90
2019-04-28T20:51:06.242Z,99.90
2019-04-28T20:53:34.708Z,99.90
2019-04-28T20:56:03.192Z,99.90
2019-04-28T20:58:31.698Z,99.90
2019-04-28T21:01:00.240Z,99.90
2019-04-28T21:03:28.758Z,99.90
2019-04-28T21:05:57.217Z,99.90
2019-04-28T21:08:25.670Z,99.90
2019-04-28T21:10:54.125Z,99.90
2019-04-28T21:13:22.624Z,99.90
2019-04-28T21:15:51.144Z,99.90
2019-04-28T21:18:19.740Z,99.90
2019-04-28T21:20:48.264Z,99.90
2019-04-28T21:23:16.714Z,99.90
2019-04-28T21:25:45.326Z,99.90
2019-04-28T21:28:13.778Z,99.90
2019-04-28T21:30:42.258Z,99.90
2019-04-28T21:33:10.698Z,99.90
2019-04-28T21:35:39.180Z,99.90
2019-04-28T21:38:07.610Z,99.90
2019-04-28T21:40:36.643Z,99.90
2019-04-28T21:43:06.742Z,99.90
2019-04-28T21:45:52.522Z,99.90
2019-04-28T21:48:34.604Z,99.90
2019-04-28T21:51:03.126Z,99.90
2019-04-28T21:53:31.599Z,99.90
2019-04-28T21:56:00.063Z,99.90
2019-04-28T21:58:33.204Z,99.90
2019-04-28T22:00:58.744Z,99.90
2019-04-28T22:03:27.319Z,99.90
2019-04-28T22:05:55.771Z,99.90
2019-04-28T22:08:24.207Z,99.90
2019-04-28T22:10:52.848Z,99.90
2019-04-28T22:13:21.376Z,99.90
2019-04-28T22:15:50.239Z,99.90
2019-04-28T22:18:18.743Z,99.90
2019-04-28T22:20:47.198Z,99.90
2019-04-28T22:23:18.595Z,99.90
2019-04-28T22:25:47.407Z,99.90
2019-04-28T22:28:15.871Z,99.90
2019-04-28T22:30:44.333Z,99.90
2019-04-28T22:33:12.765Z,99.90
2019-04-28T22:35:41.207Z,99.90
2019-04-28T22:38:09.664Z,99.90
2019-04-28T22:40:38.097Z,99.90
2019-04-28T22:43:06.618Z,99.90
2019-04-28T22:45:35.057Z,99.90
2019-04-28T22:48:04.363Z,99.90
2019-04-28T22:50:41.281Z,99.90
2019-04-28T22:53:09.974Z,99.90
2019-04-28T22:55:40.057Z,99.90
2019-04-28T22:58:28.312Z,99.90
2019-04-28T23:00:58.459Z,99.90
2019-04-28T23:03:28.698Z,99.90
2019-04-28T23:05:57.143Z,99.90
2019-04-28T23:08:25.926Z,99.90
2019-04-28T23:10:54.384Z,99.90
2019-04-28T23:13:23.070Z,99.90
2019-04-28T23:15:51.778Z,99.90
2019-04-28T23:18:20.237Z,99.90
2019-04-28T23:20:50.313Z,99.90
2019-04-28T23:23:18.798Z,99.90
2019-04-28T23:25:47.255Z,99.90
2019-04-28T23:28:15.764Z,99.90
2019-04-28T23:30:46.303Z,99.90
2019-04-28T23:33:14.766Z,99.90
2019-04-28T23:35:43.268Z,99.90
2019-04-28T23:38:11.723Z,99.90
2019-04-28T23:40:41.796Z,99.90
2019-04-28T23:43:11.898Z,99.90
2019-04-28T23:45:40.332Z,99.90
2019-04-28T23:48:08.767Z,99.90
2019-04-28T23:50:38.856Z,99.90
2019-04-28T23:53:11.638Z,99.90
2019-04-28T23:55:40.110Z,99.90
2019-04-28T23:58:08.586Z,99.90
